sensor_id;sensor_type;location;lat;lon;timestamp;P1;durP1;ratioP1;P2;durP2;ratioP2
22778;SDS011;11556;51.194;3.800;2023-02-28T00:01:30;8.50;;;6.00;;
22778;SDS011;11556;51.194;3.800;2023-02-28T00:03:57;8.88;;;6.70;;
22778;SDS011;11556;51.194;3.800;2023-02-28T00:06:23;8.52;;;6.00;;
22778;SDS011;11556;51.194;3.800;2023-02-28T00:08:49;8.88;;;6.28;;
22778;SDS011;11556;51.194;3.800;2023-02-28T00:11:15;9.65;;;6.30;;
22778;SDS011;11556;51.194;3.800;2023-02-28T00:13:43;9.57;;;6.45;;
22778;SDS011;11556;51.194;3.800;2023-02-28T00:16:12;8.90;;;6.38;;
22778;SDS011;11556;51.194;3.800;2023-02-28T00:18:42;12.65;;;6.60;;
22778;SDS011;11556;51.194;3.800;2023-02-28T00:21:08;10.73;;;6.63;;
22778;SDS011;11556;51.194;3.800;2023-02-28T00:23:34;11.60;;;7.18;;
22778;SDS011;11556;51.194;3.800;2023-02-28T00:26:00;11.30;;;6.80;;
22778;SDS011;11556;51.194;3.800;2023-02-28T00:28:26;11.05;;;6.75;;
22778;SDS011;11556;51.194;3.800;2023-02-28T00:30:51;9.25;;;6.88;;
22778;SDS011;11556;51.194;3.800;2023-02-28T00:33:17;10.75;;;6.82;;
22778;SDS011;11556;51.194;3.800;2023-02-28T00:35:43;10.68;;;6.80;;
22778;SDS011;11556;51.194;3.800;2023-02-28T00:38:11;8.77;;;7.15;;
22778;SDS011;11556;51.194;3.800;2023-02-28T00:40:38;9.68;;;6.75;;
22778;SDS011;11556;51.194;3.800;2023-02-28T00:43:03;11.88;;;6.63;;
22778;SDS011;11556;51.194;3.800;2023-02-28T00:45:29;10.55;;;7.25;;
22778;SDS011;11556;51.194;3.800;2023-02-28T00:47:55;10.48;;;6.72;;
22778;SDS011;11556;51.194;3.800;2023-02-28T00:50:20;10.23;;;6.82;;
22778;SDS011;11556;51.194;3.800;2023-02-28T00:52:46;11.38;;;7.00;;
22778;SDS011;11556;51.194;3.800;2023-02-28T00:55:12;10.73;;;7.13;;
22778;SDS011;11556;51.194;3.800;2023-02-28T00:57:38;12.90;;;7.22;;
22778;SDS011;11556;51.194;3.800;2023-02-28T01:00:05;11.30;;;6.68;;
22778;SDS011;11556;51.194;3.800;2023-02-28T01:02:31;9.55;;;6.80;;
22778;SDS011;11556;51.194;3.800;2023-02-28T01:04:57;11.20;;;6.63;;
22778;SDS011;11556;51.194;3.800;2023-02-28T01:07:23;11.10;;;6.88;;
22778;SDS011;11556;51.194;3.800;2023-02-28T01:09:49;10.90;;;6.93;;
22778;SDS011;11556;51.194;3.800;2023-02-28T01:12:14;9.48;;;6.82;;
22778;SDS011;11556;51.194;3.800;2023-02-28T01:14:40;10.70;;;6.88;;
22778;SDS011;11556;51.194;3.800;2023-02-28T01:17:06;12.40;;;7.15;;
22778;SDS011;11556;51.194;3.800;2023-02-28T01:19:32;9.20;;;6.85;;
22778;SDS011;11556;51.194;3.800;2023-02-28T01:22:00;11.88;;;6.93;;
22778;SDS011;11556;51.194;3.800;2023-02-28T01:24:30;10.93;;;6.43;;
22778;SDS011;11556;51.194;3.800;2023-02-28T01:26:56;13.38;;;7.35;;
22778;SDS011;11556;51.194;3.800;2023-02-28T01:29:22;13.18;;;7.07;;
22778;SDS011;11556;51.194;3.800;2023-02-28T01:31:47;10.77;;;7.38;;
22778;SDS011;11556;51.194;3.800;2023-02-28T01:34:13;12.43;;;7.07;;
22778;SDS011;11556;51.194;3.800;2023-02-28T01:36:39;9.38;;;6.75;;
22778;SDS011;11556;51.194;3.800;2023-02-28T01:39:04;9.38;;;7.13;;
22778;SDS011;11556;51.194;3.800;2023-02-28T01:41:31;10.50;;;7.28;;
22778;SDS011;11556;51.194;3.800;2023-02-28T01:44:00;11.50;;;7.10;;
22778;SDS011;11556;51.194;3.800;2023-02-28T01:46:48;10.00;;;6.80;;
22778;SDS011;11556;51.194;3.800;2023-02-28T01:49:15;12.70;;;7.40;;
22778;SDS011;11556;51.194;3.800;2023-02-28T01:51:44;12.30;;;7.45;;
22778;SDS011;11556;51.194;3.800;2023-02-28T01:54:21;12.15;;;6.97;;
22778;SDS011;11556;51.194;3.800;2023-02-28T01:56:54;9.40;;;7.20;;
22778;SDS011;11556;51.194;3.800;2023-02-28T01:59:33;15.43;;;7.72;;
22778;SDS011;11556;51.194;3.800;2023-02-28T02:02:03;12.57;;;7.68;;
22778;SDS011;11556;51.194;3.800;2023-02-28T02:04:32;12.32;;;7.90;;
22778;SDS011;11556;51.194;3.800;2023-02-28T02:07:03;12.93;;;7.65;;
22778;SDS011;11556;51.194;3.800;2023-02-28T02:09:29;14.90;;;8.18;;
22778;SDS011;11556;51.194;3.800;2023-02-28T02:11:55;13.30;;;7.68;;
22778;SDS011;11556;51.194;3.800;2023-02-28T02:14:29;15.05;;;8.02;;
22778;SDS011;11556;51.194;3.800;2023-02-28T02:17:27;14.18;;;8.18;;
22778;SDS011;11556;51.194;3.800;2023-02-28T02:25:16;19.38;;;8.70;;
22778;SDS011;11556;51.194;3.800;2023-02-28T02:31:02;12.85;;;8.27;;
22778;SDS011;11556;51.194;3.800;2023-02-28T02:33:43;16.77;;;8.65;;
22778;SDS011;11556;51.194;3.800;2023-02-28T02:36:33;12.70;;;7.55;;
22778;SDS011;11556;51.194;3.800;2023-02-28T02:41:54;13.18;;;7.95;;
22778;SDS011;11556;51.194;3.800;2023-02-28T02:44:29;15.00;;;8.45;;
22778;SDS011;11556;51.194;3.800;2023-02-28T02:47:03;15.00;;;9.05;;
22778;SDS011;11556;51.194;3.800;2023-02-28T02:49:35;14.52;;;8.57;;
22778;SDS011;11556;51.194;3.800;2023-02-28T02:52:04;11.98;;;7.85;;
22778;SDS011;11556;51.194;3.800;2023-02-28T02:54:38;14.68;;;8.80;;
22778;SDS011;11556;51.194;3.800;2023-02-28T02:57:09;10.57;;;7.82;;
22778;SDS011;11556;51.194;3.800;2023-02-28T02:59:40;14.73;;;8.27;;
22778;SDS011;11556;51.194;3.800;2023-02-28T03:02:08;15.55;;;8.40;;
22778;SDS011;11556;51.194;3.800;2023-02-28T03:04:42;15.73;;;7.97;;
22778;SDS011;11556;51.194;3.800;2023-02-28T03:07:11;15.60;;;8.15;;
22778;SDS011;11556;51.194;3.800;2023-02-28T03:09:36;15.05;;;8.88;;
22778;SDS011;11556;51.194;3.800;2023-02-28T03:12:02;12.95;;;8.55;;
22778;SDS011;11556;51.194;3.800;2023-02-28T03:30:47;13.98;;;7.82;;
22778;SDS011;11556;51.194;3.800;2023-02-28T03:33:20;15.07;;;7.68;;
22778;SDS011;11556;51.194;3.800;2023-02-28T03:35:54;15.45;;;7.97;;
22778;SDS011;11556;51.194;3.800;2023-02-28T03:38:31;16.77;;;7.82;;
22778;SDS011;11556;51.194;3.800;2023-02-28T03:41:11;11.63;;;7.20;;
22778;SDS011;11556;51.194;3.800;2023-02-28T03:43:41;13.17;;;7.60;;
22778;SDS011;11556;51.194;3.800;2023-02-28T03:46:12;11.45;;;7.35;;
22778;SDS011;11556;51.194;3.800;2023-02-28T03:48:43;13.95;;;7.82;;
22778;SDS011;11556;51.194;3.800;2023-02-28T03:51:14;13.20;;;7.40;;
22778;SDS011;11556;51.194;3.800;2023-02-28T03:53:47;11.07;;;7.43;;
22778;SDS011;11556;51.194;3.800;2023-02-28T03:56:19;11.55;;;7.50;;
22778;SDS011;11556;51.194;3.800;2023-02-28T04:01:27;16.85;;;7.55;;
22778;SDS011;11556;51.194;3.800;2023-02-28T04:03:56;14.33;;;7.87;;
22778;SDS011;11556;51.194;3.800;2023-02-28T04:06:22;12.73;;;7.57;;
22778;SDS011;11556;51.194;3.800;2023-02-28T04:08:49;13.15;;;7.85;;
22778;SDS011;11556;51.194;3.800;2023-02-28T04:11:20;13.90;;;7.63;;
22778;SDS011;11556;51.194;3.800;2023-02-28T04:13:46;11.75;;;7.32;;
22778;SDS011;11556;51.194;3.800;2023-02-28T04:16:13;13.77;;;7.43;;
22778;SDS011;11556;51.194;3.800;2023-02-28T04:18:39;13.27;;;7.30;;
22778;SDS011;11556;51.194;3.800;2023-02-28T04:21:05;12.75;;;7.22;;
22778;SDS011;11556;51.194;3.800;2023-02-28T04:23:31;12.90;;;7.38;;
22778;SDS011;11556;51.194;3.800;2023-02-28T04:25:57;11.90;;;6.85;;
22778;SDS011;11556;51.194;3.800;2023-02-28T04:28:22;11.27;;;7.28;;
22778;SDS011;11556;51.194;3.800;2023-02-28T04:30:53;12.27;;;7.28;;
22778;SDS011;11556;51.194;3.800;2023-02-28T04:33:23;12.38;;;7.22;;
22778;SDS011;11556;51.194;3.800;2023-02-28T04:35:57;10.40;;;7.05;;
22778;SDS011;11556;51.194;3.800;2023-02-28T04:38:28;11.70;;;6.63;;
22778;SDS011;11556;51.194;3.800;2023-02-28T04:40:56;15.38;;;6.85;;
22778;SDS011;11556;51.194;3.800;2023-02-28T04:43:23;9.02;;;6.38;;
22778;SDS011;11556;51.194;3.800;2023-02-28T04:45:49;11.20;;;6.40;;
22778;SDS011;11556;51.194;3.800;2023-02-28T04:48:14;12.95;;;6.82;;
22778;SDS011;11556;51.194;3.800;2023-02-28T04:50:41;10.82;;;6.38;;
22778;SDS011;11556;51.194;3.800;2023-02-28T04:53:06;11.25;;;6.78;;
22778;SDS011;11556;51.194;3.800;2023-02-28T04:55:32;12.35;;;6.60;;
22778;SDS011;11556;51.194;3.800;2023-02-28T04:57:58;10.65;;;6.80;;
22778;SDS011;11556;51.194;3.800;2023-02-28T05:00:23;11.50;;;7.03;;
22778;SDS011;11556;51.194;3.800;2023-02-28T05:02:50;11.98;;;6.85;;
22778;SDS011;11556;51.194;3.800;2023-02-28T05:05:15;11.55;;;6.78;;
22778;SDS011;11556;51.194;3.800;2023-02-28T05:07:43;12.85;;;7.55;;
22778;SDS011;11556;51.194;3.800;2023-02-28T05:10:09;12.88;;;6.78;;
22778;SDS011;11556;51.194;3.800;2023-02-28T05:12:35;12.10;;;6.88;;
22778;SDS011;11556;51.194;3.800;2023-02-28T05:15:01;10.63;;;6.97;;
22778;SDS011;11556;51.194;3.800;2023-02-28T05:17:27;10.93;;;6.78;;
22778;SDS011;11556;51.194;3.800;2023-02-28T05:19:53;11.48;;;6.18;;
22778;SDS011;11556;51.194;3.800;2023-02-28T05:22:19;12.07;;;7.68;;
22778;SDS011;11556;51.194;3.800;2023-02-28T05:24:44;11.02;;;6.80;;
22778;SDS011;11556;51.194;3.800;2023-02-28T05:27:10;14.32;;;7.97;;
22778;SDS011;11556;51.194;3.800;2023-02-28T05:29:36;13.50;;;7.47;;
22778;SDS011;11556;51.194;3.800;2023-02-28T05:32:08;15.00;;;7.47;;
22778;SDS011;11556;51.194;3.800;2023-02-28T05:34:36;12.13;;;7.60;;
22778;SDS011;11556;51.194;3.800;2023-02-28T05:37:02;11.45;;;7.22;;
22778;SDS011;11556;51.194;3.800;2023-02-28T05:39:28;14.07;;;7.90;;
22778;SDS011;11556;51.194;3.800;2023-02-28T05:41:54;11.85;;;7.53;;
22778;SDS011;11556;51.194;3.800;2023-02-28T05:44:20;12.52;;;7.57;;
22778;SDS011;11556;51.194;3.800;2023-02-28T05:46:45;13.55;;;8.20;;
22778;SDS011;11556;51.194;3.800;2023-02-28T05:49:11;11.10;;;7.72;;
22778;SDS011;11556;51.194;3.800;2023-02-28T05:51:37;14.65;;;8.00;;
22778;SDS011;11556;51.194;3.800;2023-02-28T05:54:04;17.17;;;9.82;;
22778;SDS011;11556;51.194;3.800;2023-02-28T05:56:31;10.05;;;7.55;;
22778;SDS011;11556;51.194;3.800;2023-02-28T05:58:59;12.35;;;8.15;;
22778;SDS011;11556;51.194;3.800;2023-02-28T06:01:32;14.35;;;7.63;;
22778;SDS011;11556;51.194;3.800;2023-02-28T06:04:04;13.10;;;8.15;;
22778;SDS011;11556;51.194;3.800;2023-02-28T06:06:31;12.65;;;8.40;;
22778;SDS011;11556;51.194;3.800;2023-02-28T06:08:59;14.40;;;7.97;;
22778;SDS011;11556;51.194;3.800;2023-02-28T06:11:25;14.02;;;8.38;;
22778;SDS011;11556;51.194;3.800;2023-02-28T06:13:56;15.50;;;7.97;;
22778;SDS011;11556;51.194;3.800;2023-02-28T06:18:50;14.52;;;8.40;;
22778;SDS011;11556;51.194;3.800;2023-02-28T06:21:17;14.65;;;8.32;;
22778;SDS011;11556;51.194;3.800;2023-02-28T06:23:43;15.32;;;8.43;;
22778;SDS011;11556;51.194;3.800;2023-02-28T06:26:09;13.13;;;7.60;;
22778;SDS011;11556;51.194;3.800;2023-02-28T06:28:36;14.70;;;8.45;;
22778;SDS011;11556;51.194;3.800;2023-02-28T06:31:05;11.45;;;7.88;;
22778;SDS011;11556;51.194;3.800;2023-02-28T06:33:32;12.88;;;7.75;;
22778;SDS011;11556;51.194;3.800;2023-02-28T06:35:58;16.85;;;8.98;;
22778;SDS011;11556;51.194;3.800;2023-02-28T06:38:23;12.63;;;7.75;;
22778;SDS011;11556;51.194;3.800;2023-02-28T06:40:53;13.15;;;7.53;;
22778;SDS011;11556;51.194;3.800;2023-02-28T06:43:20;15.32;;;8.57;;
22778;SDS011;11556;51.194;3.800;2023-02-28T06:45:46;13.90;;;7.97;;
22778;SDS011;11556;51.194;3.800;2023-02-28T06:48:12;12.95;;;8.18;;
22778;SDS011;11556;51.194;3.800;2023-02-28T06:50:38;12.82;;;7.72;;
22778;SDS011;11556;51.194;3.800;2023-02-28T06:53:03;11.45;;;7.53;;
22778;SDS011;11556;51.194;3.800;2023-02-28T06:55:29;11.90;;;7.72;;
22778;SDS011;11556;51.194;3.800;2023-02-28T06:57:55;14.20;;;7.72;;
22778;SDS011;11556;51.194;3.800;2023-02-28T07:00:21;10.65;;;7.00;;
22778;SDS011;11556;51.194;3.800;2023-02-28T07:02:47;9.13;;;6.63;;
22778;SDS011;11556;51.194;3.800;2023-02-28T07:05:13;11.00;;;6.57;;
22778;SDS011;11556;51.194;3.800;2023-02-28T07:07:39;9.77;;;5.72;;
22778;SDS011;11556;51.194;3.800;2023-02-28T07:10:09;9.93;;;5.90;;
22778;SDS011;11556;51.194;3.800;2023-02-28T07:12:38;8.73;;;5.20;;
22778;SDS011;11556;51.194;3.800;2023-02-28T07:15:04;7.03;;;4.63;;
22778;SDS011;11556;51.194;3.800;2023-02-28T07:17:31;6.47;;;5.25;;
22778;SDS011;11556;51.194;3.800;2023-02-28T07:19:56;7.60;;;4.18;;
22778;SDS011;11556;51.194;3.800;2023-02-28T07:22:22;8.48;;;3.97;;
22778;SDS011;11556;51.194;3.800;2023-02-28T07:24:47;8.57;;;3.60;;
22778;SDS011;11556;51.194;3.800;2023-02-28T07:27:13;4.90;;;3.40;;
22778;SDS011;11556;51.194;3.800;2023-02-28T07:29:48;11.95;;;3.10;;
22778;SDS011;11556;51.194;3.800;2023-02-28T07:32:18;3.50;;;2.45;;
22778;SDS011;11556;51.194;3.800;2023-02-28T07:34:44;4.05;;;2.63;;
22778;SDS011;11556;51.194;3.800;2023-02-28T07:37:10;4.15;;;2.50;;
22778;SDS011;11556;51.194;3.800;2023-02-28T07:39:36;3.78;;;2.30;;
22778;SDS011;11556;51.194;3.800;2023-02-28T07:42:05;5.22;;;2.50;;
22778;SDS011;11556;51.194;3.800;2023-02-28T07:44:34;4.05;;;1.83;;
22778;SDS011;11556;51.194;3.800;2023-02-28T07:47:00;3.95;;;2.00;;
22778;SDS011;11556;51.194;3.800;2023-02-28T07:49:26;2.72;;;2.10;;
22778;SDS011;11556;51.194;3.800;2023-02-28T07:51:51;4.82;;;2.40;;
22778;SDS011;11556;51.194;3.800;2023-02-28T07:54:17;9.20;;;2.20;;
22778;SDS011;11556;51.194;3.800;2023-02-28T07:56:42;9.65;;;2.42;;
22778;SDS011;11556;51.194;3.800;2023-02-28T07:59:08;3.88;;;2.22;;
22778;SDS011;11556;51.194;3.800;2023-02-28T08:01:34;5.72;;;2.17;;
22778;SDS011;11556;51.194;3.800;2023-02-28T08:03:59;7.88;;;2.72;;
22778;SDS011;11556;51.194;3.800;2023-02-28T08:06:25;2.83;;;2.17;;
22778;SDS011;11556;51.194;3.800;2023-02-28T08:08:51;2.85;;;1.88;;
22778;SDS011;11556;51.194;3.800;2023-02-28T08:11:18;4.05;;;2.22;;
22778;SDS011;11556;51.194;3.800;2023-02-28T08:13:44;4.57;;;2.45;;
22778;SDS011;11556;51.194;3.800;2023-02-28T08:16:10;8.82;;;2.50;;
22778;SDS011;11556;51.194;3.800;2023-02-28T08:18:40;4.55;;;2.28;;
22778;SDS011;11556;51.194;3.800;2023-02-28T08:21:06;4.18;;;2.47;;
22778;SDS011;11556;51.194;3.800;2023-02-28T08:23:33;3.03;;;2.50;;
22778;SDS011;11556;51.194;3.800;2023-02-28T08:25:58;4.72;;;2.17;;
22778;SDS011;11556;51.194;3.800;2023-02-28T08:28:24;5.90;;;2.70;;
22778;SDS011;11556;51.194;3.800;2023-02-28T08:30:50;4.28;;;2.53;;
22778;SDS011;11556;51.194;3.800;2023-02-28T08:33:15;5.70;;;2.42;;
22778;SDS011;11556;51.194;3.800;2023-02-28T08:35:41;5.43;;;2.80;;
22778;SDS011;11556;51.194;3.800;2023-02-28T08:38:06;5.60;;;2.58;;
22778;SDS011;11556;51.194;3.800;2023-02-28T08:40:32;3.92;;;2.45;;
22778;SDS011;11556;51.194;3.800;2023-02-28T08:42:58;4.60;;;2.97;;
22778;SDS011;11556;51.194;3.800;2023-02-28T08:45:24;4.72;;;2.60;;
22778;SDS011;11556;51.194;3.800;2023-02-28T08:47:50;5.55;;;2.70;;
22778;SDS011;11556;51.194;3.800;2023-02-28T08:50:17;13.23;;;2.92;;
22778;SDS011;11556;51.194;3.800;2023-02-28T08:52:43;6.00;;;2.88;;
22778;SDS011;11556;51.194;3.800;2023-02-28T08:55:09;4.65;;;2.80;;
22778;SDS011;11556;51.194;3.800;2023-02-28T08:57:35;3.67;;;2.85;;
22778;SDS011;11556;51.194;3.800;2023-02-28T09:00:02;5.45;;;3.25;;
22778;SDS011;11556;51.194;3.800;2023-02-28T09:02:29;6.22;;;3.00;;
22778;SDS011;11556;51.194;3.800;2023-02-28T09:04:56;5.70;;;3.17;;
22778;SDS011;11556;51.194;3.800;2023-02-28T09:07:23;9.02;;;3.50;;
22778;SDS011;11556;51.194;3.800;2023-02-28T09:09:48;4.93;;;3.25;;
22778;SDS011;11556;51.194;3.800;2023-02-28T09:12:21;6.90;;;4.25;;
22778;SDS011;11556;51.194;3.800;2023-02-28T09:14:48;7.15;;;3.67;;
22778;SDS011;11556;51.194;3.800;2023-02-28T09:17:13;7.78;;;3.58;;
22778;SDS011;11556;51.194;3.800;2023-02-28T09:19:40;5.72;;;3.72;;
22778;SDS011;11556;51.194;3.800;2023-02-28T09:22:05;5.22;;;3.88;;
22778;SDS011;11556;51.194;3.800;2023-02-28T09:24:31;6.47;;;3.78;;
22778;SDS011;11556;51.194;3.800;2023-02-28T09:26:57;7.03;;;3.58;;
22778;SDS011;11556;51.194;3.800;2023-02-28T09:29:22;8.32;;;3.95;;
22778;SDS011;11556;51.194;3.800;2023-02-28T09:31:48;9.70;;;4.75;;
22778;SDS011;11556;51.194;3.800;2023-02-28T09:34:14;10.43;;;4.60;;
22778;SDS011;11556;51.194;3.800;2023-02-28T09:36:42;7.82;;;4.53;;
22778;SDS011;11556;51.194;3.800;2023-02-28T09:39:08;9.82;;;4.40;;
22778;SDS011;11556;51.194;3.800;2023-02-28T09:41:38;7.75;;;4.60;;
22778;SDS011;11556;51.194;3.800;2023-02-28T09:46:56;10.63;;;5.32;;
22778;SDS011;11556;51.194;3.800;2023-02-28T09:49:28;7.32;;;4.70;;
22778;SDS011;11556;51.194;3.800;2023-02-28T09:52:04;7.35;;;4.72;;
22778;SDS011;11556;51.194;3.800;2023-02-28T09:54:36;10.82;;;4.75;;
22778;SDS011;11556;51.194;3.800;2023-02-28T09:57:19;7.22;;;4.65;;
22778;SDS011;11556;51.194;3.800;2023-02-28T10:00:20;10.13;;;5.07;;
22778;SDS011;11556;51.194;3.800;2023-02-28T10:05:51;9.25;;;4.43;;
22778;SDS011;11556;51.194;3.800;2023-02-28T10:08:34;7.38;;;5.28;;
22778;SDS011;11556;51.194;3.800;2023-02-28T10:11:22;6.03;;;4.38;;
22778;SDS011;11556;51.194;3.800;2023-02-28T10:13:51;8.13;;;4.40;;
22778;SDS011;11556;51.194;3.800;2023-02-28T10:16:27;6.47;;;4.70;;
22778;SDS011;11556;51.194;3.800;2023-02-28T10:24:39;7.80;;;3.70;;
22778;SDS011;11556;51.194;3.800;2023-02-28T10:27:14;5.67;;;3.97;;
22778;SDS011;11556;51.194;3.800;2023-02-28T10:29:44;4.53;;;3.15;;
22778;SDS011;11556;51.194;3.800;2023-02-28T10:32:15;4.95;;;2.90;;
22778;SDS011;11556;51.194;3.800;2023-02-28T10:34:42;3.90;;;2.50;;
22778;SDS011;11556;51.194;3.800;2023-02-28T10:37:09;3.17;;;2.45;;
22778;SDS011;11556;51.194;3.800;2023-02-28T10:39:41;6.82;;;2.80;;
22778;SDS011;11556;51.194;3.800;2023-02-28T10:42:32;6.68;;;2.72;;
22778;SDS011;11556;51.194;3.800;2023-02-28T10:45:13;3.25;;;2.50;;
22778;SDS011;11556;51.194;3.800;2023-02-28T10:47:54;2.83;;;2.35;;
22778;SDS011;11556;51.194;3.800;2023-02-28T10:50:29;5.68;;;2.60;;
22778;SDS011;11556;51.194;3.800;2023-02-28T10:53:05;3.47;;;2.70;;
22778;SDS011;11556;51.194;3.800;2023-02-28T10:55:32;3.70;;;2.65;;
22778;SDS011;11556;51.194;3.800;2023-02-28T10:57:58;12.13;;;3.03;;
22778;SDS011;11556;51.194;3.800;2023-02-28T11:00:24;2.88;;;2.00;;
22778;SDS011;11556;51.194;3.800;2023-02-28T11:02:56;6.35;;;2.50;;
22778;SDS011;11556;51.194;3.800;2023-02-28T11:05:31;3.67;;;2.53;;
22778;SDS011;11556;51.194;3.800;2023-02-28T11:08:02;3.70;;;2.50;;
22778;SDS011;11556;51.194;3.800;2023-02-28T11:10:33;3.55;;;2.72;;
22778;SDS011;11556;51.194;3.800;2023-02-28T11:12:59;3.35;;;2.38;;
22778;SDS011;11556;51.194;3.800;2023-02-28T11:15:27;3.80;;;2.40;;
22778;SDS011;11556;51.194;3.800;2023-02-28T11:20:32;2.95;;;2.00;;
22778;SDS011;11556;51.194;3.800;2023-02-28T11:22:59;3.33;;;2.42;;
22778;SDS011;11556;51.194;3.800;2023-02-28T11:25:33;2.47;;;2.28;;
22778;SDS011;11556;51.194;3.800;2023-02-28T11:28:02;4.22;;;2.38;;
22778;SDS011;11556;51.194;3.800;2023-02-28T11:30:48;3.95;;;2.33;;
22778;SDS011;11556;51.194;3.800;2023-02-28T11:33:40;4.15;;;2.40;;
22778;SDS011;11556;51.194;3.800;2023-02-28T11:36:14;5.22;;;2.35;;
22778;SDS011;11556;51.194;3.800;2023-02-28T11:38:40;3.30;;;2.28;;
22778;SDS011;11556;51.194;3.800;2023-02-28T11:41:26;2.75;;;2.17;;
22778;SDS011;11556;51.194;3.800;2023-02-28T11:52:53;3.95;;;2.40;;
22778;SDS011;11556;51.194;3.800;2023-02-28T11:55:25;3.17;;;2.35;;
22778;SDS011;11556;51.194;3.800;2023-02-28T12:00:45;2.90;;;2.20;;
22778;SDS011;11556;51.194;3.800;2023-02-28T12:03:47;4.32;;;3.35;;
22778;SDS011;11556;51.194;3.800;2023-02-28T12:06:40;2.72;;;2.47;;
22778;SDS011;11556;51.194;3.800;2023-02-28T12:20:37;3.15;;;2.13;;
22778;SDS011;11556;51.194;3.800;2023-02-28T12:26:20;2.20;;;1.95;;
22778;SDS011;11556;51.194;3.800;2023-02-28T12:28:53;2.88;;;2.00;;
22778;SDS011;11556;51.194;3.800;2023-02-28T12:31:24;2.10;;;1.50;;
22778;SDS011;11556;51.194;3.800;2023-02-28T12:33:56;2.60;;;1.88;;
22778;SDS011;11556;51.194;3.800;2023-02-28T12:36:27;1.83;;;1.67;;
22778;SDS011;11556;51.194;3.800;2023-02-28T12:39:04;2.05;;;1.65;;
22778;SDS011;11556;51.194;3.800;2023-02-28T12:41:41;1.85;;;1.75;;
22778;SDS011;11556;51.194;3.800;2023-02-28T12:47:04;1.73;;;1.63;;
22778;SDS011;11556;51.194;3.800;2023-02-28T12:49:49;3.42;;;1.90;;
22778;SDS011;11556;51.194;3.800;2023-02-28T12:52:25;2.08;;;1.88;;
22778;SDS011;11556;51.194;3.800;2023-02-28T13:09:18;1.95;;;1.67;;
22778;SDS011;11556;51.194;3.800;2023-02-28T13:11:46;3.55;;;1.90;;
22778;SDS011;11556;51.194;3.800;2023-02-28T13:16:59;2.08;;;1.80;;
22778;SDS011;11556;51.194;3.800;2023-02-28T13:19:34;3.30;;;1.73;;
22778;SDS011;11556;51.194;3.800;2023-02-28T13:22:03;4.18;;;1.90;;
22778;SDS011;11556;51.194;3.800;2023-02-28T13:24:48;2.72;;;1.95;;
22778;SDS011;11556;51.194;3.800;2023-02-28T13:29:57;14.45;;;11.93;;
22778;SDS011;11556;51.194;3.800;2023-02-28T13:42:41;3.13;;;2.10;;
22778;SDS011;11556;51.194;3.800;2023-02-28T13:50:19;2.58;;;2.03;;
22778;SDS011;11556;51.194;3.800;2023-02-28T14:08:58;2.55;;;2.35;;
22778;SDS011;11556;51.194;3.800;2023-02-28T14:11:35;2.80;;;2.10;;
22778;SDS011;11556;51.194;3.800;2023-02-28T14:14:03;2.88;;;2.17;;
22778;SDS011;11556;51.194;3.800;2023-02-28T14:16:39;1.95;;;1.80;;
22778;SDS011;11556;51.194;3.800;2023-02-28T14:24:26;2.92;;;2.17;;
22778;SDS011;11556;51.194;3.800;2023-02-28T14:37:28;2.50;;;2.10;;
22778;SDS011;11556;51.194;3.800;2023-02-28T14:39:58;3.17;;;2.28;;
22778;SDS011;11556;51.194;3.800;2023-02-28T14:42:33;3.03;;;2.13;;
22778;SDS011;11556;51.194;3.800;2023-02-28T14:45:03;2.63;;;2.35;;
22778;SDS011;11556;51.194;3.800;2023-02-28T14:47:32;2.50;;;2.15;;
22778;SDS011;11556;51.194;3.800;2023-02-28T14:50:00;5.47;;;3.97;;
22778;SDS011;11556;51.194;3.800;2023-02-28T14:52:29;4.15;;;2.40;;
22778;SDS011;11556;51.194;3.800;2023-02-28T14:54:58;4.20;;;2.65;;
22778;SDS011;11556;51.194;3.800;2023-02-28T14:57:34;2.70;;;2.50;;
22778;SDS011;11556;51.194;3.800;2023-02-28T15:02:45;3.70;;;2.67;;
22778;SDS011;11556;51.194;3.800;2023-02-28T15:07:45;4.28;;;2.60;;
22778;SDS011;11556;51.194;3.800;2023-02-28T15:10:17;3.08;;;2.65;;
22778;SDS011;11556;51.194;3.800;2023-02-28T15:12:49;2.55;;;2.20;;
22778;SDS011;11556;51.194;3.800;2023-02-28T15:16:10;3.53;;;2.55;;
22778;SDS011;11556;51.194;3.800;2023-02-28T15:18:52;2.90;;;2.65;;
22778;SDS011;11556;51.194;3.800;2023-02-28T15:21:23;3.45;;;2.67;;
22778;SDS011;11556;51.194;3.800;2023-02-28T15:23:54;3.65;;;2.80;;
22778;SDS011;11556;51.194;3.800;2023-02-28T15:26:30;3.65;;;2.47;;
22778;SDS011;11556;51.194;3.800;2023-02-28T15:29:00;3.38;;;2.53;;
22778;SDS011;11556;51.194;3.800;2023-02-28T15:31:31;2.97;;;2.40;;
22778;SDS011;11556;51.194;3.800;2023-02-28T15:34:03;3.72;;;2.47;;
22778;SDS011;11556;51.194;3.800;2023-02-28T15:36:30;3.00;;;2.58;;
22778;SDS011;11556;51.194;3.800;2023-02-28T15:38:58;4.82;;;2.70;;
22778;SDS011;11556;51.194;3.800;2023-02-28T15:41:28;8.55;;;2.97;;
22778;SDS011;11556;51.194;3.800;2023-02-28T15:44:38;5.00;;;2.97;;
22778;SDS011;11556;51.194;3.800;2023-02-28T15:47:04;4.80;;;2.90;;
22778;SDS011;11556;51.194;3.800;2023-02-28T15:49:45;5.05;;;3.17;;
22778;SDS011;11556;51.194;3.800;2023-02-28T15:52:57;3.83;;;2.90;;
22778;SDS011;11556;51.194;3.800;2023-02-28T15:57:50;4.40;;;2.80;;
22778;SDS011;11556;51.194;3.800;2023-02-28T16:00:19;6.93;;;2.67;;
22778;SDS011;11556;51.194;3.800;2023-02-28T16:02:47;4.20;;;2.90;;
22778;SDS011;11556;51.194;3.800;2023-02-28T16:07:45;4.43;;;2.92;;
22778;SDS011;11556;51.194;3.800;2023-02-28T16:10:13;3.35;;;3.03;;
22778;SDS011;11556;51.194;3.800;2023-02-28T16:12:39;6.70;;;2.95;;
22778;SDS011;11556;51.194;3.800;2023-02-28T16:15:07;3.08;;;2.70;;
22778;SDS011;11556;51.194;3.800;2023-02-28T16:17:43;2.65;;;2.45;;
22778;SDS011;11556;51.194;3.800;2023-02-28T16:20:14;5.93;;;3.20;;
22778;SDS011;11556;51.194;3.800;2023-02-28T16:22:42;5.03;;;2.97;;
22778;SDS011;11556;51.194;3.800;2023-02-28T16:25:11;2.78;;;2.58;;
22778;SDS011;11556;51.194;3.800;2023-02-28T16:27:41;4.63;;;3.00;;
22778;SDS011;11556;51.194;3.800;2023-02-28T16:30:13;4.63;;;3.17;;
22778;SDS011;11556;51.194;3.800;2023-02-28T16:32:43;4.57;;;2.90;;
22778;SDS011;11556;51.194;3.800;2023-02-28T16:35:09;3.42;;;2.65;;
22778;SDS011;11556;51.194;3.800;2023-02-28T16:37:35;4.47;;;2.90;;
22778;SDS011;11556;51.194;3.800;2023-02-28T16:40:02;3.72;;;3.33;;
22778;SDS011;11556;51.194;3.800;2023-02-28T16:42:28;6.22;;;3.13;;
22778;SDS011;11556;51.194;3.800;2023-02-28T16:44:55;4.03;;;3.17;;
22778;SDS011;11556;51.194;3.800;2023-02-28T16:47:23;4.15;;;3.00;;
22778;SDS011;11556;51.194;3.800;2023-02-28T16:49:48;5.18;;;3.53;;
22778;SDS011;11556;51.194;3.800;2023-02-28T16:52:14;4.78;;;3.47;;
22778;SDS011;11556;51.194;3.800;2023-02-28T16:54:40;4.68;;;3.50;;
22778;SDS011;11556;51.194;3.800;2023-02-28T16:57:12;4.10;;;2.95;;
22778;SDS011;11556;51.194;3.800;2023-02-28T16:59:50;5.55;;;3.70;;
22778;SDS011;11556;51.194;3.800;2023-02-28T17:02:16;5.25;;;3.65;;
22778;SDS011;11556;51.194;3.800;2023-02-28T17:04:44;3.75;;;3.40;;
22778;SDS011;11556;51.194;3.800;2023-02-28T17:07:11;5.78;;;3.15;;
22778;SDS011;11556;51.194;3.800;2023-02-28T17:09:37;3.90;;;3.38;;
22778;SDS011;11556;51.194;3.800;2023-02-28T17:12:03;5.05;;;3.42;;
22778;SDS011;11556;51.194;3.800;2023-02-28T17:14:29;4.90;;;3.55;;
22778;SDS011;11556;51.194;3.800;2023-02-28T17:16:55;5.78;;;3.47;;
22778;SDS011;11556;51.194;3.800;2023-02-28T17:19:20;4.57;;;3.80;;
22778;SDS011;11556;51.194;3.800;2023-02-28T17:21:46;4.53;;;3.30;;
22778;SDS011;11556;51.194;3.800;2023-02-28T17:24:11;4.90;;;3.28;;
22778;SDS011;11556;51.194;3.800;2023-02-28T17:26:38;3.95;;;3.40;;
22778;SDS011;11556;51.194;3.800;2023-02-28T17:29:06;5.03;;;3.60;;
22778;SDS011;11556;51.194;3.800;2023-02-28T17:31:46;5.40;;;3.67;;